Terminal Aerodrome Forecast
Issued by NWS

Home | Current Version | Previous Version | Text Only | Print | Product List | Glossary On
Versions: 1 2 3 4 5 6 7 8 9 10 11 12 13 14 15 16 17
000
FTUS45 KABQ 020500
TAFAEG
TAF
KAEG 020531Z 0206/0306 36008KT P6SM VCTS SCT040CB OVC050
      TEMPO 0206/0207 VRB15G25KT TSRA OVC040CB
     FM020700 15008KT P6SM VCSH BKN050 OVC080
      TEMPO 0207/0209 -SHRA BKN040
     FM021200 02006KT P6SM SCT040 BKN080
     FM021800 12006KT P6SM SCT050 BKN100
     FM022100 15010KT P6SM VCTS SCT060CB BKN120=

USA.gov is the U.S. government's official web portal to all federal, state and local government web resources and services.